Погода Форкуинана 2 недели

Сеара, Бразилия

17 - 30 июня
  • 17июня
    Сегодня
    +23°
    +31°
    Облачно с прояснениями
    ВремяПогодаТемператураВлажностьДавлениеВетер, м/сВероятность осадков
    00:00Облачно с прояснениями+24°C85 %749 мм0.9 м/с5 %
    03:00Пасмурно, сплошная облачность+23°C86 %749 мм2.3 м/с5 %
    06:00Небольшая облачность+23°C87 %749 мм1.8 м/с5 %
    09:00Небольшая облачность+28°C66 %750 мм4.5 м/с5 %
    12:00Облачно с прояснениями+31°C53 %749 мм5.8 м/с2 %
    15:00Облачно с прояснениями+31°C52 %747 мм4.7 м/с3 %
    18:00Практически безоблачно+28°C68 %748 мм2.4 м/с5 %
    21:00Небольшая облачность+26°C77 %749 мм2.6 м/с5 %
  • 18июня
    Вторник
    +22°
    +32°
    Практически безоблачно
    ВремяПогодаТемператураВлажностьДавлениеВетер, м/сВероятность осадков
    00:00Облачно с прояснениями+26°C78 %749 мм1.1 м/с3 %
    03:00Ясно и безоблачно+24°C84 %748 мм2.1 м/с4 %
    06:00Ясно и безоблачно+24°C87 %749 мм1.4 м/с5 %
    09:00Ясно и безоблачно+28°C67 %750 мм4.4 м/с5 %
    12:00Ясно и безоблачно+31°C49 %749 мм5.8 м/с5 %
    15:00Практически безоблачно+31°C50 %747 мм5.7 м/с5 %
    18:00Ясно и безоблачно+29°C62 %748 мм3.8 м/с3 %
    21:00Ясно и безоблачно+26°C72 %749 мм2.8 м/с2 %
  • 19июня
    Среда
    +23°
    +33°
    Небольшая облачность
    ВремяПогодаТемператураВлажностьДавлениеВетер, м/сВероятность осадков
    00:00Ясно и безоблачно+24°C79 %749 мм1.8 м/с5 %
    03:00Ясно и безоблачно+22°C89 %748 мм2.4 м/с5 %
    06:00Ясно и безоблачно+23°C93 %749 мм2.2 м/с5 %
    09:00Ясно и безоблачно+28°C68 %750 мм4.1 м/с3 %
    12:00Ясно и безоблачно+31°C51 %749 мм5.2 м/с4 %
    15:00Небольшая облачность+32°C48 %748 мм5.5 м/с3 %
    18:00Практически безоблачно+29°C64 %748 мм2.9 м/с7 %
    21:00Ясно и безоблачно+27°C72 %749 мм2.6 м/с5 %
  • 20июня
    Четверг
    +23°
    +33°
    Практически безоблачно
    ВремяПогодаТемператураВлажностьДавлениеВетер, м/сВероятность осадков
    00:00Ясно и безоблачно+25°C84 %749 мм1.9 м/с5 %
    03:00Ясно и безоблачно+24°C91 %748 мм2.5 м/с5 %
    06:00Ясно и безоблачно+24°C93 %749 мм2.1 м/с2 %
    09:00Ясно и безоблачно+28°C67 %750 мм5.1 м/с4 %
    12:00Практически безоблачно+32°C52 %749 мм6.2 м/с10 %
    15:00Практически безоблачно+32°C48 %747 мм5.5 м/с14 %
    18:00Ясно и безоблачно+29°C64 %748 мм3.2 м/с18 %
    21:00Ясно и безоблачно+27°C74 %749 мм2.6 м/с17 %
  • 21июня
    Пятница
    +23°
    +32°
    Практически безоблачно
    ВремяПогодаТемператураВлажностьДавлениеВетер, м/сВероятность осадков
    00:00Ясно и безоблачно+25°C85 %749 мм2.7 м/с5 %
    03:00Практически безоблачно+24°C92 %748 мм2.3 м/с12 %
    06:00Практически безоблачно+24°C91 %749 мм1.9 м/с10 %
    09:00Практически безоблачно+28°C67 %750 мм6.4 м/с5 %
    12:00Практически безоблачно+32°C52 %749 мм7.1 м/с3 %
    15:00Практически безоблачно+32°C51 %747 мм5.8 м/с9 %
    18:00Ясно и безоблачно+29°C63 %748 мм4.0 м/с7 %
    21:00Ясно и безоблачно+26°C79 %750 мм2.2 м/с7 %
Мы используем cookies
Соглашаюсь